sensor_id;sensor_type;location;lat;lon;timestamp;temperature;humidity
35559;DHT22;21661;50.794;-1.066;2023-03-08T00:02:15;5.30;99.90
35559;DHT22;21661;50.794;-1.066;2023-03-08T00:04:41;5.30;99.90
35559;DHT22;21661;50.794;-1.066;2023-03-08T00:07:06;5.30;99.90
35559;DHT22;21661;50.794;-1.066;2023-03-08T00:09:32;5.20;99.90
35559;DHT22;21661;50.794;-1.066;2023-03-08T00:11:57;5.20;99.90
35559;DHT22;21661;50.794;-1.066;2023-03-08T00:14:23;5.20;99.90
35559;DHT22;21661;50.794;-1.066;2023-03-08T00:16:49;5.20;99.90
35559;DHT22;21661;50.794;-1.066;2023-03-08T00:19:14;5.20;99.90
35559;DHT22;21661;50.794;-1.066;2023-03-08T00:21:40;5.20;99.90
35559;DHT22;21661;50.794;-1.066;2023-03-08T00:24:05;5.20;99.90
35559;DHT22;21661;50.794;-1.066;2023-03-08T00:26:31;5.20;99.90
35559;DHT22;21661;50.794;-1.066;2023-03-08T00:28:57;5.20;99.90
35559;DHT22;21661;50.794;-1.066;2023-03-08T00:31:22;5.20;99.90
35559;DHT22;21661;50.794;-1.066;2023-03-08T00:33:52;5.20;99.90
35559;DHT22;21661;50.794;-1.066;2023-03-08T00:36:18;5.20;99.90
35559;DHT22;21661;50.794;-1.066;2023-03-08T00:38:44;5.20;99.90
35559;DHT22;21661;50.794;-1.066;2023-03-08T00:41:10;5.10;99.90
35559;DHT22;21661;50.794;-1.066;2023-03-08T00:43:36;5.20;99.90
35559;DHT22;21661;50.794;-1.066;2023-03-08T00:46:03;5.20;99.90
35559;DHT22;21661;50.794;-1.066;2023-03-08T00:48:28;5.10;99.90
35559;DHT22;21661;50.794;-1.066;2023-03-08T00:50:54;5.10;99.90
35559;DHT22;21661;50.794;-1.066;2023-03-08T00:53:19;5.10;99.90
35559;DHT22;21661;50.794;-1.066;2023-03-08T00:55:51;5.10;99.90
35559;DHT22;21661;50.794;-1.066;2023-03-08T00:58:17;5.10;99.90
35559;DHT22;21661;50.794;-1.066;2023-03-08T01:00:44;5.10;99.90
35559;DHT22;21661;50.794;-1.066;2023-03-08T01:03:09;5.10;99.90
35559;DHT22;21661;50.794;-1.066;2023-03-08T01:05:43;5.10;99.90
35559;DHT22;21661;50.794;-1.066;2023-03-08T01:08:10;5.00;99.90
35559;DHT22;21661;50.794;-1.066;2023-03-08T01:10:36;5.00;99.90
35559;DHT22;21661;50.794;-1.066;2023-03-08T01:13:03;4.90;99.90
35559;DHT22;21661;50.794;-1.066;2023-03-08T01:15:30;4.90;99.90
35559;DHT22;21661;50.794;-1.066;2023-03-08T01:17:56;4.90;99.90
35559;DHT22;21661;50.794;-1.066;2023-03-08T01:20:21;4.90;99.90
35559;DHT22;21661;50.794;-1.066;2023-03-08T01:22:47;4.80;99.90
35559;DHT22;21661;50.794;-1.066;2023-03-08T01:25:12;4.80;99.90
35559;DHT22;21661;50.794;-1.066;2023-03-08T01:27:38;4.80;99.90
35559;DHT22;21661;50.794;-1.066;2023-03-08T01:30:04;4.80;99.90
35559;DHT22;21661;50.794;-1.066;2023-03-08T01:32:30;4.80;99.90
35559;DHT22;21661;50.794;-1.066;2023-03-08T01:34:55;4.80;99.90
35559;DHT22;21661;50.794;-1.066;2023-03-08T01:37:26;4.80;99.90
35559;DHT22;21661;50.794;-1.066;2023-03-08T01:39:51;4.70;99.90
35559;DHT22;21661;50.794;-1.066;2023-03-08T01:42:17;4.70;99.90
35559;DHT22;21661;50.794;-1.066;2023-03-08T01:44:54;4.70;99.90
35559;DHT22;21661;50.794;-1.066;2023-03-08T01:47:22;4.70;99.90
35559;DHT22;21661;50.794;-1.066;2023-03-08T01:49:48;4.70;99.90
35559;DHT22;21661;50.794;-1.066;2023-03-08T01:52:32;4.70;99.90
35559;DHT22;21661;50.794;-1.066;2023-03-08T01:55:05;4.70;99.90
35559;DHT22;21661;50.794;-1.066;2023-03-08T01:57:52;4.70;99.90
35559;DHT22;21661;50.794;-1.066;2023-03-08T02:00:24;4.70;99.90
35559;DHT22;21661;50.794;-1.066;2023-03-08T02:02:54;4.60;99.90
35559;DHT22;21661;50.794;-1.066;2023-03-08T02:05:21;4.70;99.90
35559;DHT22;21661;50.794;-1.066;2023-03-08T02:07:47;4.70;99.90
35559;DHT22;21661;50.794;-1.066;2023-03-08T02:10:13;4.70;99.90
35559;DHT22;21661;50.794;-1.066;2023-03-08T02:12:40;4.70;99.90
35559;DHT22;21661;50.794;-1.066;2023-03-08T02:15:08;4.70;99.90
35559;DHT22;21661;50.794;-1.066;2023-03-08T02:17:38;4.70;99.90
35559;DHT22;21661;50.794;-1.066;2023-03-08T02:20:11;4.60;99.90
35559;DHT22;21661;50.794;-1.066;2023-03-08T02:22:43;4.70;99.90
35559;DHT22;21661;50.794;-1.066;2023-03-08T02:25:20;4.60;99.90
35559;DHT22;21661;50.794;-1.066;2023-03-08T02:27:47;4.60;99.90
35559;DHT22;21661;50.794;-1.066;2023-03-08T02:30:15;4.60;99.90
35559;DHT22;21661;50.794;-1.066;2023-03-08T02:32:41;4.60;99.90
35559;DHT22;21661;50.794;-1.066;2023-03-08T02:35:07;4.60;99.90
35559;DHT22;21661;50.794;-1.066;2023-03-08T02:37:33;4.60;99.90
35559;DHT22;21661;50.794;-1.066;2023-03-08T02:39:59;4.50;99.90
35559;DHT22;21661;50.794;-1.066;2023-03-08T02:42:25;4.60;99.90
35559;DHT22;21661;50.794;-1.066;2023-03-08T02:44:50;4.60;99.90
35559;DHT22;21661;50.794;-1.066;2023-03-08T02:47:16;4.60;99.90
35559;DHT22;21661;50.794;-1.066;2023-03-08T02:49:42;4.60;99.90
35559;DHT22;21661;50.794;-1.066;2023-03-08T02:52:07;4.50;99.90
35559;DHT22;21661;50.794;-1.066;2023-03-08T02:54:33;4.50;99.90
35559;DHT22;21661;50.794;-1.066;2023-03-08T02:56:58;4.40;99.90
35559;DHT22;21661;50.794;-1.066;2023-03-08T02:59:24;4.30;99.90
35559;DHT22;21661;50.794;-1.066;2023-03-08T03:01:51;4.40;99.90
35559;DHT22;21661;50.794;-1.066;2023-03-08T03:04:17;4.40;99.90
35559;DHT22;21661;50.794;-1.066;2023-03-08T03:06:42;4.30;99.90
35559;DHT22;21661;50.794;-1.066;2023-03-08T03:09:08;4.30;99.90
35559;DHT22;21661;50.794;-1.066;2023-03-08T03:11:34;4.30;99.90
35559;DHT22;21661;50.794;-1.066;2023-03-08T03:14:00;4.30;99.90
35559;DHT22;21661;50.794;-1.066;2023-03-08T03:16:27;4.20;99.90
35559;DHT22;21661;50.794;-1.066;2023-03-08T03:18:53;4.20;99.90
35559;DHT22;21661;50.794;-1.066;2023-03-08T03:21:20;4.20;99.90
35559;DHT22;21661;50.794;-1.066;2023-03-08T03:23:46;4.20;99.90
35559;DHT22;21661;50.794;-1.066;2023-03-08T03:26:20;4.10;99.90
35559;DHT22;21661;50.794;-1.066;2023-03-08T03:28:46;4.10;99.90
35559;DHT22;21661;50.794;-1.066;2023-03-08T03:31:17;4.10;99.90
35559;DHT22;21661;50.794;-1.066;2023-03-08T03:33:44;4.00;99.90
35559;DHT22;21661;50.794;-1.066;2023-03-08T03:36:12;3.90;99.90
35559;DHT22;21661;50.794;-1.066;2023-03-08T03:38:38;3.90;99.90
35559;DHT22;21661;50.794;-1.066;2023-03-08T03:41:09;3.90;99.90
35559;DHT22;21661;50.794;-1.066;2023-03-08T03:43:36;3.80;99.90
35559;DHT22;21661;50.794;-1.066;2023-03-08T03:46:03;3.80;99.90
35559;DHT22;21661;50.794;-1.066;2023-03-08T03:48:30;3.80;99.90
35559;DHT22;21661;50.794;-1.066;2023-03-08T03:51:08;3.80;99.90
35559;DHT22;21661;50.794;-1.066;2023-03-08T03:53:34;3.70;99.90
35559;DHT22;21661;50.794;-1.066;2023-03-08T03:56:09;3.60;99.90
35559;DHT22;21661;50.794;-1.066;2023-03-08T03:58:36;3.60;99.90
35559;DHT22;21661;50.794;-1.066;2023-03-08T04:01:10;3.50;99.90
35559;DHT22;21661;50.794;-1.066;2023-03-08T04:03:36;3.50;99.90
35559;DHT22;21661;50.794;-1.066;2023-03-08T04:06:19;3.40;99.90
35559;DHT22;21661;50.794;-1.066;2023-03-08T04:08:46;3.40;99.90
35559;DHT22;21661;50.794;-1.066;2023-03-08T04:11:17;3.50;99.90
35559;DHT22;21661;50.794;-1.066;2023-03-08T04:13:43;3.50;99.90
35559;DHT22;21661;50.794;-1.066;2023-03-08T04:16:10;3.50;99.90
35559;DHT22;21661;50.794;-1.066;2023-03-08T04:18:36;3.40;99.90
35559;DHT22;21661;50.794;-1.066;2023-03-08T04:21:01;3.40;99.90
35559;DHT22;21661;50.794;-1.066;2023-03-08T04:23:27;3.40;99.90
35559;DHT22;21661;50.794;-1.066;2023-03-08T04:25:53;3.40;99.90
35559;DHT22;21661;50.794;-1.066;2023-03-08T04:28:18;3.40;99.90
35559;DHT22;21661;50.794;-1.066;2023-03-08T04:30:44;3.40;99.90
35559;DHT22;21661;50.794;-1.066;2023-03-08T04:33:09;3.40;99.90
35559;DHT22;21661;50.794;-1.066;2023-03-08T04:35:35;3.40;99.90
35559;DHT22;21661;50.794;-1.066;2023-03-08T04:38:01;3.40;99.90
35559;DHT22;21661;50.794;-1.066;2023-03-08T04:40:26;3.40;99.90
35559;DHT22;21661;50.794;-1.066;2023-03-08T04:42:52;3.30;99.90
35559;DHT22;21661;50.794;-1.066;2023-03-08T04:45:17;3.40;99.90
35559;DHT22;21661;50.794;-1.066;2023-03-08T04:47:43;3.40;99.90
35559;DHT22;21661;50.794;-1.066;2023-03-08T04:50:09;3.40;99.90
35559;DHT22;21661;50.794;-1.066;2023-03-08T04:52:35;3.30;99.90
35559;DHT22;21661;50.794;-1.066;2023-03-08T04:55:01;3.30;99.90
35559;DHT22;21661;50.794;-1.066;2023-03-08T04:57:26;3.30;99.90
35559;DHT22;21661;50.794;-1.066;2023-03-08T04:59:52;3.30;99.90
35559;DHT22;21661;50.794;-1.066;2023-03-08T05:02:17;3.30;99.90
35559;DHT22;21661;50.794;-1.066;2023-03-08T05:04:43;3.40;99.90
35559;DHT22;21661;50.794;-1.066;2023-03-08T05:07:09;3.30;99.90
35559;DHT22;21661;50.794;-1.066;2023-03-08T05:09:34;3.30;99.90
35559;DHT22;21661;50.794;-1.066;2023-03-08T05:12:00;3.30;99.90
35559;DHT22;21661;50.794;-1.066;2023-03-08T05:14:26;3.30;99.90
35559;DHT22;21661;50.794;-1.066;2023-03-08T05:16:55;3.30;99.90
35559;DHT22;21661;50.794;-1.066;2023-03-08T05:19:20;3.30;99.90
35559;DHT22;21661;50.794;-1.066;2023-03-08T05:21:46;3.20;99.90
35559;DHT22;21661;50.794;-1.066;2023-03-08T05:24:12;3.30;99.90
35559;DHT22;21661;50.794;-1.066;2023-03-08T05:26:38;3.40;99.90
35559;DHT22;21661;50.794;-1.066;2023-03-08T05:29:03;3.30;99.90
35559;DHT22;21661;50.794;-1.066;2023-03-08T05:31:31;3.20;99.90
35559;DHT22;21661;50.794;-1.066;2023-03-08T05:33:56;3.20;99.90
35559;DHT22;21661;50.794;-1.066;2023-03-08T05:36:22;3.20;99.90
35559;DHT22;21661;50.794;-1.066;2023-03-08T05:38:54;3.20;99.90
35559;DHT22;21661;50.794;-1.066;2023-03-08T05:41:20;3.20;99.90
35559;DHT22;21661;50.794;-1.066;2023-03-08T05:43:46;3.20;99.90
35559;DHT22;21661;50.794;-1.066;2023-03-08T05:46:17;3.20;99.90
35559;DHT22;21661;50.794;-1.066;2023-03-08T05:48:42;3.20;99.90
35559;DHT22;21661;50.794;-1.066;2023-03-08T05:51:11;3.30;99.90
35559;DHT22;21661;50.794;-1.066;2023-03-08T05:53:37;3.30;99.90
35559;DHT22;21661;50.794;-1.066;2023-03-08T05:56:11;3.30;99.90
35559;DHT22;21661;50.794;-1.066;2023-03-08T05:58:39;3.30;99.90
35559;DHT22;21661;50.794;-1.066;2023-03-08T06:01:09;3.20;99.90
35559;DHT22;21661;50.794;-1.066;2023-03-08T06:03:35;3.20;99.90
35559;DHT22;21661;50.794;-1.066;2023-03-08T06:06:01;3.20;99.90
35559;DHT22;21661;50.794;-1.066;2023-03-08T06:08:26;3.20;99.90
35559;DHT22;21661;50.794;-1.066;2023-03-08T06:10:52;3.20;99.90
35559;DHT22;21661;50.794;-1.066;2023-03-08T06:13:17;3.20;99.90
35559;DHT22;21661;50.794;-1.066;2023-03-08T06:15:43;3.20;99.90
35559;DHT22;21661;50.794;-1.066;2023-03-08T06:18:09;3.20;99.90
35559;DHT22;21661;50.794;-1.066;2023-03-08T06:20:34;3.20;99.90
35559;DHT22;21661;50.794;-1.066;2023-03-08T06:23:00;3.20;99.90
35559;DHT22;21661;50.794;-1.066;2023-03-08T06:25:25;3.20;99.90
35559;DHT22;21661;50.794;-1.066;2023-03-08T06:27:51;3.20;99.90
35559;DHT22;21661;50.794;-1.066;2023-03-08T06:30:17;3.20;99.90
35559;DHT22;21661;50.794;-1.066;2023-03-08T06:32:42;3.20;99.90
35559;DHT22;21661;50.794;-1.066;2023-03-08T06:35:08;3.20;99.90
35559;DHT22;21661;50.794;-1.066;2023-03-08T06:37:34;3.20;99.90
35559;DHT22;21661;50.794;-1.066;2023-03-08T06:40:00;3.20;99.90
35559;DHT22;21661;50.794;-1.066;2023-03-08T06:42:26;3.20;99.90
35559;DHT22;21661;50.794;-1.066;2023-03-08T06:44:51;3.30;99.90
35559;DHT22;21661;50.794;-1.066;2023-03-08T06:47:17;3.30;99.90
35559;DHT22;21661;50.794;-1.066;2023-03-08T06:49:43;3.40;99.90
35559;DHT22;21661;50.794;-1.066;2023-03-08T06:52:08;3.40;99.90
35559;DHT22;21661;50.794;-1.066;2023-03-08T06:54:34;3.40;99.90
35559;DHT22;21661;50.794;-1.066;2023-03-08T06:56:59;3.30;99.90
35559;DHT22;21661;50.794;-1.066;2023-03-08T06:59:25;3.30;99.90
35559;DHT22;21661;50.794;-1.066;2023-03-08T07:01:51;3.30;99.90
35559;DHT22;21661;50.794;-1.066;2023-03-08T07:04:16;3.40;99.90
35559;DHT22;21661;50.794;-1.066;2023-03-08T07:06:43;3.30;99.90
35559;DHT22;21661;50.794;-1.066;2023-03-08T07:09:09;3.30;99.90
35559;DHT22;21661;50.794;-1.066;2023-03-08T07:11:34;3.40;99.90
35559;DHT22;21661;50.794;-1.066;2023-03-08T07:14:00;3.40;99.90
35559;DHT22;21661;50.794;-1.066;2023-03-08T07:16:26;3.40;99.90
35559;DHT22;21661;50.794;-1.066;2023-03-08T07:18:52;3.40;99.90
35559;DHT22;21661;50.794;-1.066;2023-03-08T07:21:18;3.40;99.90
35559;DHT22;21661;50.794;-1.066;2023-03-08T07:23:43;3.40;99.90
35559;DHT22;21661;50.794;-1.066;2023-03-08T07:26:10;3.40;99.90
35559;DHT22;21661;50.794;-1.066;2023-03-08T07:28:35;3.40;99.90
35559;DHT22;21661;50.794;-1.066;2023-03-08T07:31:01;3.40;99.90
35559;DHT22;21661;50.794;-1.066;2023-03-08T07:33:27;3.40;99.90
35559;DHT22;21661;50.794;-1.066;2023-03-08T07:35:53;3.40;99.90
35559;DHT22;21661;50.794;-1.066;2023-03-08T07:38:18;3.40;99.90
35559;DHT22;21661;50.794;-1.066;2023-03-08T07:40:44;3.40;99.90
35559;DHT22;21661;50.794;-1.066;2023-03-08T07:43:10;3.50;99.90
35559;DHT22;21661;50.794;-1.066;2023-03-08T07:45:37;3.50;99.90
35559;DHT22;21661;50.794;-1.066;2023-03-08T07:48:04;3.50;99.90
35559;DHT22;21661;50.794;-1.066;2023-03-08T07:50:30;3.50;99.90
35559;DHT22;21661;50.794;-1.066;2023-03-08T07:52:55;3.50;99.90
35559;DHT22;21661;50.794;-1.066;2023-03-08T07:55:23;3.60;99.90
35559;DHT22;21661;50.794;-1.066;2023-03-08T07:57:50;3.50;99.90
35559;DHT22;21661;50.794;-1.066;2023-03-08T08:00:17;3.50;99.90
35559;DHT22;21661;50.794;-1.066;2023-03-08T08:02:42;3.50;99.90
35559;DHT22;21661;50.794;-1.066;2023-03-08T08:05:08;3.60;99.90
35559;DHT22;21661;50.794;-1.066;2023-03-08T08:07:34;3.50;99.90
35559;DHT22;21661;50.794;-1.066;2023-03-08T08:09:59;3.50;99.90
35559;DHT22;21661;50.794;-1.066;2023-03-08T08:12:25;3.50;99.90
35559;DHT22;21661;50.794;-1.066;2023-03-08T08:14:51;3.60;99.90
35559;DHT22;21661;50.794;-1.066;2023-03-08T08:17:18;3.60;99.90
35559;DHT22;21661;50.794;-1.066;2023-03-08T08:19:44;3.60;99.90
35559;DHT22;21661;50.794;-1.066;2023-03-08T08:22:09;3.50;99.90
35559;DHT22;21661;50.794;-1.066;2023-03-08T08:24:35;3.50;99.90
35559;DHT22;21661;50.794;-1.066;2023-03-08T08:27:01;3.50;99.90
35559;DHT22;21661;50.794;-1.066;2023-03-08T08:29:27;3.40;99.90
35559;DHT22;21661;50.794;-1.066;2023-03-08T08:31:52;3.40;99.90
35559;DHT22;21661;50.794;-1.066;2023-03-08T08:34:19;3.50;99.90
35559;DHT22;21661;50.794;-1.066;2023-03-08T08:36:45;3.50;99.90
35559;DHT22;21661;50.794;-1.066;2023-03-08T08:39:11;3.60;99.90
35559;DHT22;21661;50.794;-1.066;2023-03-08T08:41:37;3.60;99.90
35559;DHT22;21661;50.794;-1.066;2023-03-08T08:44:02;3.60;99.90
35559;DHT22;21661;50.794;-1.066;2023-03-08T08:46:29;3.60;99.90
35559;DHT22;21661;50.794;-1.066;2023-03-08T08:48:58;3.70;99.90
35559;DHT22;21661;50.794;-1.066;2023-03-08T08:51:24;3.70;99.90
35559;DHT22;21661;50.794;-1.066;2023-03-08T08:53:50;3.80;99.90
35559;DHT22;21661;50.794;-1.066;2023-03-08T08:56:24;3.80;99.90
35559;DHT22;21661;50.794;-1.066;2023-03-08T08:58:50;3.90;99.90
35559;DHT22;21661;50.794;-1.066;2023-03-08T09:01:18;4.00;99.90
35559;DHT22;21661;50.794;-1.066;2023-03-08T09:03:45;4.00;99.90
35559;DHT22;21661;50.794;-1.066;2023-03-08T09:06:12;4.10;99.90
35559;DHT22;21661;50.794;-1.066;2023-03-08T09:08:37;4.10;99.90
35559;DHT22;21661;50.794;-1.066;2023-03-08T09:11:06;4.10;99.90
35559;DHT22;21661;50.794;-1.066;2023-03-08T09:13:32;4.10;99.90
35559;DHT22;21661;50.794;-1.066;2023-03-08T09:15:57;4.00;99.90
35559;DHT22;21661;50.794;-1.066;2023-03-08T09:18:23;4.00;99.90
35559;DHT22;21661;50.794;-1.066;2023-03-08T09:20:49;4.00;99.90
35559;DHT22;21661;50.794;-1.066;2023-03-08T09:23:14;4.00;99.90
35559;DHT22;21661;50.794;-1.066;2023-03-08T09:25:40;4.00;99.90
35559;DHT22;21661;50.794;-1.066;2023-03-08T09:28:05;4.00;99.90
35559;DHT22;21661;50.794;-1.066;2023-03-08T09:30:31;4.10;99.90
35559;DHT22;21661;50.794;-1.066;2023-03-08T09:32:58;4.00;99.90
35559;DHT22;21661;50.794;-1.066;2023-03-08T09:35:24;4.00;99.90
35559;DHT22;21661;50.794;-1.066;2023-03-08T09:37:50;4.00;99.90
35559;DHT22;21661;50.794;-1.066;2023-03-08T09:40:20;4.10;99.90
35559;DHT22;21661;50.794;-1.066;2023-03-08T09:42:47;4.10;99.90
35559;DHT22;21661;50.794;-1.066;2023-03-08T09:45:23;4.00;99.90
35559;DHT22;21661;50.794;-1.066;2023-03-08T09:48:05;3.90;99.90
35559;DHT22;21661;50.794;-1.066;2023-03-08T09:53:48;3.90;99.90
35559;DHT22;21661;50.794;-1.066;2023-03-08T09:55:55;3.80;99.90
35559;DHT22;21661;50.794;-1.066;2023-03-08T09:58:42;3.80;99.90
35559;DHT22;21661;50.794;-1.066;2023-03-08T10:09:32;3.90;99.90
35559;DHT22;21661;50.794;-1.066;2023-03-08T10:12:30;3.90;99.90
35559;DHT22;21661;50.794;-1.066;2023-03-08T10:15:04;3.90;99.90
35559;DHT22;21661;50.794;-1.066;2023-03-08T10:17:56;3.90;99.90
35559;DHT22;21661;50.794;-1.066;2023-03-08T10:20:26;3.90;99.90
35559;DHT22;21661;50.794;-1.066;2023-03-08T10:23:01;3.90;99.90
35559;DHT22;21661;50.794;-1.066;2023-03-08T10:25:32;3.90;99.90
35559;DHT22;21661;50.794;-1.066;2023-03-08T10:28:00;3.90;99.90
35559;DHT22;21661;50.794;-1.066;2023-03-08T10:30:35;3.90;99.90
35559;DHT22;21661;50.794;-1.066;2023-03-08T10:33:05;4.00;99.90
35559;DHT22;21661;50.794;-1.066;2023-03-08T10:35:34;4.00;99.90
35559;DHT22;21661;50.794;-1.066;2023-03-08T10:38:14;4.00;99.90
35559;DHT22;21661;50.794;-1.066;2023-03-08T10:40:39;4.00;99.90
35559;DHT22;21661;50.794;-1.066;2023-03-08T10:43:05;4.10;99.90
35559;DHT22;21661;50.794;-1.066;2023-03-08T10:45:31;4.10;99.90
35559;DHT22;21661;50.794;-1.066;2023-03-08T10:48:03;4.10;99.90
35559;DHT22;21661;50.794;-1.066;2023-03-08T10:50:32;4.10;99.90
35559;DHT22;21661;50.794;-1.066;2023-03-08T10:53:19;4.20;99.90
35559;DHT22;21661;50.794;-1.066;2023-03-08T10:55:49;4.20;99.90
35559;DHT22;21661;50.794;-1.066;2023-03-08T10:58:41;4.20;99.90
35559;DHT22;21661;50.794;-1.066;2023-03-08T11:01:24;4.20;99.90
35559;DHT22;21661;50.794;-1.066;2023-03-08T11:04:11;4.30;99.90
35559;DHT22;21661;50.794;-1.066;2023-03-08T11:06:38;4.40;99.90
35559;DHT22;21661;50.794;-1.066;2023-03-08T11:09:27;4.30;99.90
35559;DHT22;21661;50.794;-1.066;2023-03-08T11:11:57;4.30;99.90
35559;DHT22;21661;50.794;-1.066;2023-03-08T11:14:27;4.30;99.90
35559;DHT22;21661;50.794;-1.066;2023-03-08T11:20:19;4.40;99.90
35559;DHT22;21661;50.794;-1.066;2023-03-08T11:26:05;4.30;99.90
35559;DHT22;21661;50.794;-1.066;2023-03-08T11:41:48;4.40;99.90
35559;DHT22;21661;50.794;-1.066;2023-03-08T11:57:08;4.50;99.90
35559;DHT22;21661;50.794;-1.066;2023-03-08T12:02:14;4.50;99.90
35559;DHT22;21661;50.794;-1.066;2023-03-08T12:05:04;4.40;99.90
35559;DHT22;21661;50.794;-1.066;2023-03-08T12:07:50;4.50;99.90
35559;DHT22;21661;50.794;-1.066;2023-03-08T12:10:44;4.50;99.90
35559;DHT22;21661;50.794;-1.066;2023-03-08T12:16:12;4.50;99.90
35559;DHT22;21661;50.794;-1.066;2023-03-08T12:18:45;4.60;99.90
35559;DHT22;21661;50.794;-1.066;2023-03-08T12:21:32;4.60;99.90
35559;DHT22;21661;50.794;-1.066;2023-03-08T12:24:15;4.70;99.90
35559;DHT22;21661;50.794;-1.066;2023-03-08T12:26:50;4.70;99.90
35559;DHT22;21661;50.794;-1.066;2023-03-08T12:31:55;4.70;99.90
35559;DHT22;21661;50.794;-1.066;2023-03-08T12:36:55;4.70;99.90
35559;DHT22;21661;50.794;-1.066;2023-03-08T12:41:56;4.80;99.90
35559;DHT22;21661;50.794;-1.066;2023-03-08T12:44:24;4.90;99.90
35559;DHT22;21661;50.794;-1.066;2023-03-08T12:46:56;4.90;99.90
35559;DHT22;21661;50.794;-1.066;2023-03-08T12:52:32;5.00;99.90
35559;DHT22;21661;50.794;-1.066;2023-03-08T12:57:30;4.90;99.90
35559;DHT22;21661;50.794;-1.066;2023-03-08T13:00:19;4.90;99.90
35559;DHT22;21661;50.794;-1.066;2023-03-08T13:03:05;4.90;99.90
35559;DHT22;21661;50.794;-1.066;2023-03-08T13:05:34;4.90;99.90
35559;DHT22;21661;50.794;-1.066;2023-03-08T13:08:22;5.00;99.90
35559;DHT22;21661;50.794;-1.066;2023-03-08T13:11:11;5.00;99.90
35559;DHT22;21661;50.794;-1.066;2023-03-08T13:13:57;5.00;99.90
35559;DHT22;21661;50.794;-1.066;2023-03-08T13:16:37;5.00;99.90
35559;DHT22;21661;50.794;-1.066;2023-03-08T13:19:16;5.00;99.90
35559;DHT22;21661;50.794;-1.066;2023-03-08T13:22:05;5.10;99.90
35559;DHT22;21661;50.794;-1.066;2023-03-08T13:24:49;5.20;99.90
35559;DHT22;21661;50.794;-1.066;2023-03-08T13:30:42;5.30;99.90
35559;DHT22;21661;50.794;-1.066;2023-03-08T13:36:05;5.50;99.90
35559;DHT22;21661;50.794;-1.066;2023-03-08T13:38:33;5.50;99.90
35559;DHT22;21661;50.794;-1.066;2023-03-08T13:40:59;5.70;99.90
35559;DHT22;21661;50.794;-1.066;2023-03-08T13:43:27;5.60;99.90
35559;DHT22;21661;50.794;-1.066;2023-03-08T13:45:56;5.70;99.90
35559;DHT22;21661;50.794;-1.066;2023-03-08T13:48:25;5.70;99.90
35559;DHT22;21661;50.794;-1.066;2023-03-08T13:50:51;5.70;99.90
35559;DHT22;21661;50.794;-1.066;2023-03-08T13:53:20;5.80;99.90
35559;DHT22;21661;50.794;-1.066;2023-03-08T13:55:49;5.80;99.90
35559;DHT22;21661;50.794;-1.066;2023-03-08T14:01:18;6.00;99.90
35559;DHT22;21661;50.794;-1.066;2023-03-08T14:03:43;6.00;99.90
35559;DHT22;21661;50.794;-1.066;2023-03-08T14:08:52;6.10;99.90
35559;DHT22;21661;50.794;-1.066;2023-03-08T14:11:21;6.10;99.90
35559;DHT22;21661;50.794;-1.066;2023-03-08T14:13:53;6.10;99.90
35559;DHT22;21661;50.794;-1.066;2023-03-08T14:16:39;6.20;99.90
35559;DHT22;21661;50.794;-1.066;2023-03-08T14:24:25;6.30;99.90
35559;DHT22;21661;50.794;-1.066;2023-03-08T14:26:54;6.30;99.90
35559;DHT22;21661;50.794;-1.066;2023-03-08T14:29:22;6.30;99.90
35559;DHT22;21661;50.794;-1.066;2023-03-08T14:34:39;6.20;99.90
35559;DHT22;21661;50.794;-1.066;2023-03-08T14:39:38;6.30;99.90
35559;DHT22;21661;50.794;-1.066;2023-03-08T14:42:10;6.20;99.90
35559;DHT22;21661;50.794;-1.066;2023-03-08T14:44:39;6.20;99.90
35559;DHT22;21661;50.794;-1.066;2023-03-08T14:47:17;6.10;99.90
35559;DHT22;21661;50.794;-1.066;2023-03-08T14:50:04;6.10;99.90
35559;DHT22;21661;50.794;-1.066;2023-03-08T14:52:47;6.10;99.90
35559;DHT22;21661;50.794;-1.066;2023-03-08T14:55:20;5.90;99.90
35559;DHT22;21661;50.794;-1.066;2023-03-08T14:57:46;6.00;99.90
35559;DHT22;21661;50.794;-1.066;2023-03-08T15:00:13;6.00;99.90
35559;DHT22;21661;50.794;-1.066;2023-03-08T15:02:40;6.00;99.90
35559;DHT22;21661;50.794;-1.066;2023-03-08T15:05:12;6.00;99.90
35559;DHT22;21661;50.794;-1.066;2023-03-08T15:07:38;6.00;99.90
35559;DHT22;21661;50.794;-1.066;2023-03-08T15:10:05;6.10;99.90
35559;DHT22;21661;50.794;-1.066;2023-03-08T15:12:31;6.10;99.90
35559;DHT22;21661;50.794;-1.066;2023-03-08T15:14:56;6.10;99.90
35559;DHT22;21661;50.794;-1.066;2023-03-08T15:17:22;6.10;99.90
35559;DHT22;21661;50.794;-1.066;2023-03-08T15:19:48;6.20;99.90
35559;DHT22;21661;50.794;-1.066;2023-03-08T15:22:15;6.20;99.90
35559;DHT22;21661;50.794;-1.066;2023-03-08T15:24:41;6.40;99.90
35559;DHT22;21661;50.794;-1.066;2023-03-08T15:27:13;6.20;99.90
35559;DHT22;21661;50.794;-1.066;2023-03-08T15:29:39;6.30;99.90
35559;DHT22;21661;50.794;-1.066;2023-03-08T15:32:05;6.30;99.90
35559;DHT22;21661;50.794;-1.066;2023-03-08T15:34:31;6.30;99.90
35559;DHT22;21661;50.794;-1.066;2023-03-08T15:36:56;6.40;99.90
35559;DHT22;21661;50.794;-1.066;2023-03-08T15:39:22;6.30;99.90
35559;DHT22;21661;50.794;-1.066;2023-03-08T15:41:48;6.30;99.90
35559;DHT22;21661;50.794;-1.066;2023-03-08T15:44:14;6.20;99.90
35559;DHT22;21661;50.794;-1.066;2023-03-08T15:46:39;6.10;99.90
35559;DHT22;21661;50.794;-1.066;2023-03-08T15:49:05;6.20;99.90
35559;DHT22;21661;50.794;-1.066;2023-03-08T15:51:33;6.20;99.90
35559;DHT22;21661;50.794;-1.066;2023-03-08T15:54:00;6.30;99.90
35559;DHT22;21661;50.794;-1.066;2023-03-08T15:56:26;6.30;99.90
35559;DHT22;21661;50.794;-1.066;2023-03-08T15:58:53;6.20;99.90
35559;DHT22;21661;50.794;-1.066;2023-03-08T16:01:23;6.20;99.90
35559;DHT22;21661;50.794;-1.066;2023-03-08T16:03:54;6.20;99.90
35559;DHT22;21661;50.794;-1.066;2023-03-08T16:06:20;6.20;99.90
35559;DHT22;21661;50.794;-1.066;2023-03-08T16:08:46;6.30;99.90
35559;DHT22;21661;50.794;-1.066;2023-03-08T16:11:14;6.40;99.90
35559;DHT22;21661;50.794;-1.066;2023-03-08T16:13:40;6.30;99.90
35559;DHT22;21661;50.794;-1.066;2023-03-08T16:16:07;6.20;99.90
35559;DHT22;21661;50.794;-1.066;2023-03-08T16:18:33;6.30;99.90
35559;DHT22;21661;50.794;-1.066;2023-03-08T16:20:59;6.30;99.90
35559;DHT22;21661;50.794;-1.066;2023-03-08T16:23:25;6.30;99.90
35559;DHT22;21661;50.794;-1.066;2023-03-08T16:26:00;6.30;99.90
35559;DHT22;21661;50.794;-1.066;2023-03-08T16:28:26;6.20;99.90
35559;DHT22;21661;50.794;-1.066;2023-03-08T16:30:53;6.20;99.90
35559;DHT22;21661;50.794;-1.066;2023-03-08T16:33:19;6.20;99.90
35559;DHT22;21661;50.794;-1.066;2023-03-08T16:35:50;6.10;99.90
35559;DHT22;21661;50.794;-1.066;2023-03-08T16:38:16;6.10;99.90
35559;DHT22;21661;50.794;-1.066;2023-03-08T16:40:42;6.10;99.90
35559;DHT22;21661;50.794;-1.066;2023-03-08T16:43:08;6.10;99.90
35559;DHT22;21661;50.794;-1.066;2023-03-08T16:45:34;6.10;99.90
35559;DHT22;21661;50.794;-1.066;2023-03-08T16:48:00;6.10;99.90
35559;DHT22;21661;50.794;-1.066;2023-03-08T16:50:25;6.10;99.90
35559;DHT22;21661;50.794;-1.066;2023-03-08T16:52:56;6.10;99.90
35559;DHT22;21661;50.794;-1.066;2023-03-08T16:55:22;6.20;99.90
35559;DHT22;21661;50.794;-1.066;2023-03-08T16:57:48;6.10;99.90
35559;DHT22;21661;50.794;-1.066;2023-03-08T17:00:14;6.30;99.90
35559;DHT22;21661;50.794;-1.066;2023-03-08T17:02:41;6.10;99.90
35559;DHT22;21661;50.794;-1.066;2023-03-08T17:05:07;6.10;99.90